createdAt,value
2023-03-12T00:00:08.924Z,97388.38
2023-03-12T00:01:12.229Z,97391.31
2023-03-12T00:02:14.875Z,97389.75
2023-03-12T00:03:16.598Z,97384.09
2023-03-12T00:04:19.152Z,97382.44
2023-03-12T00:05:22.464Z,97381.94
2023-03-12T00:06:25.040Z,97375.25
2023-03-12T00:07:28.014Z,97378.75
2023-03-12T00:08:30.572Z,97372.63
2023-03-12T00:09:34.288Z,97374.25
2023-03-12T00:10:37.172Z,97375.53
2023-03-12T00:11:38.775Z,97373.91
2023-03-12T00:12:41.380Z,97376.06
2023-03-12T00:13:43.174Z,97376.31
2023-03-12T00:14:45.727Z,97368.56
2023-03-12T00:15:47.434Z,97375.25
2023-03-12T00:16:50.003Z,97365.19
2023-03-12T00:17:51.600Z,97373.50
2023-03-12T00:18:54.870Z,97365.44
2023-03-12T00:19:56.469Z,97368.84
2023-03-12T00:20:59.088Z,97369.38
2023-03-12T00:22:00.892Z,97364.28
2023-03-12T00:23:04.802Z,97369.09
2023-03-12T00:24:07.674Z,97365.09
2023-03-12T00:25:12.706Z,97369.94
2023-03-12T00:26:14.393Z,97362.25
2023-03-12T00:27:17.033Z,97367.03
2023-03-12T00:28:18.620Z,97367.28
2023-03-12T00:29:21.175Z,97368.38
2023-03-12T00:30:22.766Z,97367.03
2023-03-12T00:31:27.238Z,97365.69
2023-03-12T00:32:28.919Z,97368.34
2023-03-12T00:33:31.483Z,97370.53
2023-03-12T00:34:33.075Z,97372.16
2023-03-12T00:35:35.661Z,97363.06
2023-03-12T00:36:38.111Z,97357.94
2023-03-12T00:37:40.717Z,97356.09
2023-03-12T00:38:43.699Z,97363.00
2023-03-12T00:39:46.252Z,97359.03
2023-03-12T00:40:47.888Z,97358.28
2023-03-12T00:41:50.543Z,97356.41
2023-03-12T00:42:52.131Z,97353.47
2023-03-12T00:43:54.684Z,97354.78
2023-03-12T00:44:56.262Z,97350.50
2023-03-12T00:45:58.822Z,97357.19
2023-03-12T00:47:00.635Z,97363.06
2023-03-12T00:48:03.211Z,97356.13
2023-03-12T00:49:05.767Z,97354.53
2023-03-12T00:50:08.413Z,97343.81
2023-03-12T00:51:10.989Z,97348.09
2023-03-12T00:52:12.792Z,97341.88
2023-03-12T00:53:15.354Z,97344.56
2023-03-12T00:54:18.296Z,97341.41
2023-03-12T00:55:20.887Z,97338.75
2023-03-12T00:56:22.552Z,97340.09
2023-03-12T00:57:25.252Z,97344.63
2023-03-12T00:58:26.847Z,97345.19
2023-03-12T00:59:29.415Z,97341.72
2023-03-12T01:00:31.647Z,97349.66
2023-03-12T01:01:34.256Z,97347.50
2023-03-12T01:02:36.017Z,97347.84
2023-03-12T01:03:38.692Z,97344.59
2023-03-12T01:04:40.346Z,97356.06
2023-03-12T01:05:42.932Z,97346.69
2023-03-12T01:06:44.577Z,97346.13
2023-03-12T01:07:47.178Z,97342.69
2023-03-12T01:08:48.770Z,97345.38
2023-03-12T01:09:52.676Z,97350.47
2023-03-12T01:10:54.316Z,97348.84
2023-03-12T01:11:56.870Z,97342.75
2023-03-12T01:12:58.564Z,97348.34
2023-03-12T01:14:01.127Z,97350.00
2023-03-12T01:15:02.896Z,97343.84
2023-03-12T01:16:06.078Z,97342.72
2023-03-12T01:17:08.287Z,97340.03
2023-03-12T01:18:10.887Z,97345.09
2023-03-12T01:19:12.482Z,97345.06
2023-03-12T01:20:15.092Z,97336.00
2023-03-12T01:21:16.730Z,97344.28
2023-03-12T01:22:19.309Z,97343.78
2023-03-12T01:23:20.974Z,97338.69
2023-03-12T01:24:23.539Z,97340.53
2023-03-12T01:25:26.465Z,97340.03
2023-03-12T01:26:29.014Z,97338.97
2023-03-12T01:27:30.633Z,97337.63
2023-03-12T01:28:33.215Z,97330.09
2023-03-12T01:29:34.807Z,97331.41
2023-03-12T01:30:37.374Z,97324.41
2023-03-12T01:31:39.037Z,97333.53
2023-03-12T01:32:41.627Z,97334.91
2023-03-12T01:33:43.312Z,97326.66
2023-03-12T01:34:46.012Z,97325.53
2023-03-12T01:35:47.694Z,97330.03
2023-03-12T01:36:50.287Z,97330.88
2023-03-12T01:37:53.016Z,97328.22
2023-03-12T01:38:56.603Z,97329.56
2023-03-12T01:39:58.190Z,97332.28
2023-03-12T01:41:02.098Z,97330.66
2023-03-12T01:42:04.071Z,97335.13
2023-03-12T01:43:27.388Z,97330.53
2023-03-12T01:44:29.056Z,97334.53
2023-03-12T01:46:07.927Z,97333.03
2023-03-12T01:47:11.682Z,97329.81
2023-03-12T01:48:13.263Z,97333.28
2023-03-12T01:49:17.055Z,97331.13
2023-03-12T01:50:18.911Z,97339.75
2023-03-12T01:51:21.471Z,97333.84
2023-03-12T01:52:25.562Z,97334.91
2023-03-12T01:53:27.135Z,97324.97
2023-03-12T01:54:32.938Z,97330.88
2023-03-12T01:55:34.572Z,97328.44
2023-03-12T01:56:38.475Z,97328.91
2023-03-12T01:57:42.026Z,97326.47
2023-03-12T01:58:46.372Z,97325.34
2023-03-12T01:59:49.910Z,97330.13
2023-03-12T02:00:52.535Z,97324.25
2023-03-12T02:01:55.115Z,97329.34
2023-03-12T02:02:59.950Z,97319.22
2023-03-12T02:04:02.525Z,97318.41
2023-03-12T02:05:07.162Z,97312.75
2023-03-12T02:06:11.276Z,97317.16
2023-03-12T02:07:14.448Z,97315.56
2023-03-12T02:08:16.336Z,97319.63
2023-03-12T02:09:20.133Z,97307.06
2023-03-12T02:10:21.847Z,97316.38
2023-03-12T02:11:24.406Z,97313.19
2023-03-12T02:12:27.341Z,97313.69
2023-03-12T02:13:29.891Z,97305.66
2023-03-12T02:14:32.513Z,97308.38
2023-03-12T02:15:34.349Z,97303.81
2023-03-12T02:16:36.976Z,97300.03
2023-03-12T02:17:39.456Z,97295.94
2023-03-12T02:18:42.020Z,97298.38
2023-03-12T02:19:47.395Z,97297.03
2023-03-12T02:20:52.150Z,97295.94
2023-03-12T02:21:53.739Z,97300.00
2023-03-12T02:22:58.413Z,97297.84
2023-03-12T02:24:03.339Z,97293.91
2023-03-12T02:25:17.111Z,97296.28
2023-03-12T02:26:18.928Z,97284.81
2023-03-12T02:27:21.490Z,97283.47
2023-03-12T02:28:24.141Z,97285.88
2023-03-12T02:29:27.005Z,97289.56
2023-03-12T02:30:28.666Z,97281.84
2023-03-12T02:31:34.337Z,97286.97
2023-03-12T02:32:38.536Z,97284.38
2023-03-12T02:33:41.166Z,97285.44
2023-03-12T02:34:42.923Z,97291.53
2023-03-12T02:35:46.545Z,97286.69
2023-03-12T02:36:49.524Z,97288.75
2023-03-12T02:37:51.952Z,97289.56
2023-03-12T02:38:54.790Z,97284.44
2023-03-12T02:39:59.054Z,97286.56
2023-03-12T02:41:04.230Z,97282.81
2023-03-12T02:42:07.007Z,97294.63
2023-03-12T02:43:08.622Z,97286.09
2023-03-12T02:44:12.413Z,97283.94
2023-03-12T02:45:14.010Z,97291.47
2023-03-12T02:46:16.626Z,97278.91
2023-03-12T02:47:18.306Z,97271.41
2023-03-12T02:48:20.879Z,97276.78
2023-03-12T02:49:23.406Z,97272.84
2023-03-12T02:50:25.949Z,97268.88
2023-03-12T02:51:27.550Z,97269.38
2023-03-12T02:52:35.639Z,97261.34
2023-03-12T02:53:37.253Z,97257.25
2023-03-12T02:54:39.797Z,97258.78
2023-03-12T02:55:41.419Z,97252.44
2023-03-12T02:56:45.342Z,97248.75
2023-03-12T02:57:47.215Z,97261.09
2023-03-12T02:58:49.903Z,97260.03
2023-03-12T02:59:51.474Z,97266.94
2023-03-12T03:00:54.023Z,97267.44
2023-03-12T03:01:56.907Z,97267.63
2023-03-12T03:02:59.760Z,97261.41
2023-03-12T03:04:01.521Z,97266.19
2023-03-12T03:05:04.138Z,97264.56
2023-03-12T03:06:06.902Z,97269.22
2023-03-12T03:07:08.514Z,97262.03
2023-03-12T03:08:11.244Z,97267.41
2023-03-12T03:09:12.818Z,97264.25
2023-03-12T03:10:17.321Z,97263.44
2023-03-12T03:11:19.181Z,97257.31
2023-03-12T03:12:23.698Z,97261.81
2023-03-12T03:13:25.338Z,97261.19
2023-03-12T03:14:27.919Z,97265.22
2023-03-12T03:15:29.526Z,97267.72
2023-03-12T03:16:32.093Z,97264.47
2023-03-12T03:17:33.692Z,97259.91
2023-03-12T03:18:36.281Z,97259.88
2023-03-12T03:19:37.908Z,97266.84
2023-03-12T03:20:40.459Z,97271.91
2023-03-12T03:21:43.769Z,97270.50
2023-03-12T03:22:46.357Z,97269.97
2023-03-12T03:23:48.704Z,97272.84
2023-03-12T03:24:51.254Z,97268.25
2023-03-12T03:25:52.878Z,97273.78
2023-03-12T03:26:55.447Z,97275.91
2023-03-12T03:27:58.430Z,97271.38
2023-03-12T03:29:01.051Z,97269.84
2023-03-12T03:30:02.665Z,97274.41
2023-03-12T03:31:05.647Z,97275.97
2023-03-12T03:32:07.467Z,97272.69
2023-03-12T03:33:10.020Z,97274.81
2023-03-12T03:34:12.507Z,97264.81
2023-03-12T03:35:15.128Z,97268.50
2023-03-12T03:36:17.097Z,97266.84
2023-03-12T03:37:19.673Z,97267.38
2023-03-12T03:38:21.281Z,97270.34
2023-03-12T03:39:25.296Z,97270.84
2023-03-12T03:40:26.897Z,97272.75
2023-03-12T03:41:29.464Z,97271.41
2023-03-12T03:42:31.043Z,97266.78
2023-03-12T03:43:34.952Z,97262.84
2023-03-12T03:44:36.646Z,97257.81
2023-03-12T03:45:39.212Z,97260.78
2023-03-12T03:46:40.924Z,97261.81
2023-03-12T03:47:43.527Z,97257.44
2023-03-12T03:48:45.096Z,97265.63
2023-03-12T03:49:47.932Z,97267.19
2023-03-12T03:50:50.474Z,97269.28
2023-03-12T03:51:52.055Z,97267.81
2023-03-12T03:52:54.611Z,97268.88
2023-03-12T03:53:57.003Z,97273.72
2023-03-12T03:55:00.107Z,97265.63
2023-03-12T03:56:05.907Z,97269.34
2023-03-12T03:57:08.451Z,97270.44
2023-03-12T03:58:10.044Z,97271.47
2023-03-12T03:59:13.971Z,97266.81
2023-03-12T04:00:18.077Z,97270.84
2023-03-12T04:01:20.672Z,97263.88
2023-03-12T04:02:22.286Z,97265.81
2023-03-12T04:03:24.853Z,97259.06
2023-03-12T04:04:26.510Z,97259.31
2023-03-12T04:05:29.659Z,97263.63
2023-03-12T04:06:31.338Z,97258.81
2023-03-12T04:07:33.930Z,97249.22
2023-03-12T04:08:37.024Z,97259.69
2023-03-12T04:09:39.597Z,97254.72
2023-03-12T04:10:41.307Z,97252.00
2023-03-12T04:11:43.858Z,97248.25
2023-03-12T04:12:45.441Z,97242.31
2023-03-12T04:13:48.168Z,97239.34
2023-03-12T04:14:52.071Z,97246.59
2023-03-12T04:15:54.016Z,97248.59
2023-03-12T04:16:56.601Z,97248.31
2023-03-12T04:17:58.199Z,97249.03
2023-03-12T04:19:00.766Z,97247.19
2023-03-12T04:20:02.383Z,97246.31
2023-03-12T04:21:05.429Z,97243.03
2023-03-12T04:22:07.021Z,97238.41
2023-03-12T04:23:09.596Z,97239.44
2023-03-12T04:24:13.697Z,97239.97
2023-03-12T04:25:16.251Z,97233.50
2023-03-12T04:26:17.905Z,97231.41
2023-03-12T04:27:20.444Z,97232.88
2023-03-12T04:28:22.060Z,97233.94
2023-03-12T04:29:24.608Z,97227.56
2023-03-12T04:30:27.592Z,97226.16
2023-03-12T04:31:30.315Z,97218.78
2023-03-12T04:32:32.940Z,97225.97
2023-03-12T04:33:38.441Z,97217.66
2023-03-12T04:34:40.992Z,97221.69
2023-03-12T04:35:50.044Z,97226.59
2023-03-12T04:36:52.708Z,97222.06
2023-03-12T04:37:54.301Z,97220.16
2023-03-12T04:38:56.913Z,97220.09
2023-03-12T04:39:58.507Z,97220.97
2023-03-12T04:41:01.628Z,97215.88
2023-03-12T04:42:03.390Z,97213.72
2023-03-12T04:43:05.958Z,97216.88
2023-03-12T04:44:07.556Z,97213.06
2023-03-12T04:45:11.843Z,97215.75
2023-03-12T04:46:14.853Z,97215.97
2023-03-12T04:47:17.514Z,97216.88
2023-03-12T04:48:19.100Z,97212.00
2023-03-12T04:49:21.955Z,97213.38
2023-03-12T04:50:23.565Z,97211.06
2023-03-12T04:51:26.119Z,97207.59
2023-03-12T04:52:27.737Z,97207.59
2023-03-12T04:53:30.311Z,97212.59
2023-03-12T04:54:33.292Z,97210.75
2023-03-12T04:55:34.889Z,97216.81
2023-03-12T04:56:37.441Z,97217.59
2023-03-12T04:57:39.065Z,97211.41
2023-03-12T04:58:41.623Z,97203.66
2023-03-12T04:59:43.205Z,97205.75
2023-03-12T05:00:45.786Z,97205.75
2023-03-12T05:01:49.698Z,97200.69
2023-03-12T05:02:51.398Z,97204.16
2023-03-12T05:03:54.092Z,97199.84
2023-03-12T05:04:56.361Z,97210.38
2023-03-12T05:05:58.920Z,97205.81
2023-03-12T05:07:01.471Z,97202.91
2023-03-12T05:08:03.192Z,97206.63
2023-03-12T05:09:05.736Z,97212.72
2023-03-12T05:10:08.140Z,97210.75
2023-03-12T05:11:10.720Z,97212.31
2023-03-12T05:12:12.317Z,97212.53
2023-03-12T05:13:15.903Z,97215.50
2023-03-12T05:14:17.482Z,97217.22
2023-03-12T05:15:20.255Z,97209.19
2023-03-12T05:16:21.994Z,97212.59
2023-03-12T05:17:25.894Z,97199.78
2023-03-12T05:18:27.682Z,97217.28
2023-03-12T05:19:30.225Z,97214.53
2023-03-12T05:20:31.810Z,97206.16
2023-03-12T05:21:34.461Z,97211.28
2023-03-12T05:22:36.060Z,97204.69
2023-03-12T05:23:39.373Z,97205.97
2023-03-12T05:24:41.930Z,97204.38
2023-03-12T05:25:43.508Z,97192.59
2023-03-12T05:26:46.062Z,97201.66
2023-03-12T05:27:48.620Z,97196.22
2023-03-12T05:28:50.446Z,97195.09
2023-03-12T05:29:53.196Z,97198.25
2023-03-12T05:30:56.048Z,97193.13
2023-03-12T05:31:58.645Z,97191.75
2023-03-12T05:33:01.616Z,97187.09
2023-03-12T05:34:04.418Z,97191.97
2023-03-12T05:35:06.328Z,97186.63
2023-03-12T05:36:09.287Z,97193.72
2023-03-12T05:37:10.933Z,97199.31
2023-03-12T05:38:13.484Z,97187.03
2023-03-12T05:39:15.171Z,97194.78
2023-03-12T05:40:17.760Z,97196.63
2023-03-12T05:41:20.406Z,97191.84
2023-03-12T05:42:23.664Z,97194.75
2023-03-12T05:43:25.488Z,97196.13
2023-03-12T05:44:28.485Z,97196.56
2023-03-12T05:45:30.119Z,97198.78
2023-03-12T05:46:32.722Z,97194.97
2023-03-12T05:47:34.322Z,97196.28
2023-03-12T05:48:38.214Z,97200.56
2023-03-12T05:49:39.929Z,97192.41
2023-03-12T05:50:42.628Z,97195.69
2023-03-12T05:51:45.169Z,97198.38
2023-03-12T05:52:46.781Z,97198.38
2023-03-12T05:53:49.365Z,97192.88
2023-03-12T05:54:52.355Z,97204.19
2023-03-12T05:55:54.953Z,97196.38
2023-03-12T05:56:56.604Z,97192.69
2023-03-12T05:57:59.156Z,97195.16
2023-03-12T05:59:00.744Z,97197.53
2023-03-12T06:00:03.446Z,97197.75
2023-03-12T06:01:11.599Z,97196.13
2023-03-12T06:02:14.143Z,97186.50
2023-03-12T06:03:15.755Z,97194.53
2023-03-12T06:04:19.686Z,97183.44
2023-03-12T06:05:21.446Z,97179.31
2023-03-12T06:06:24.099Z,97179.84
2023-03-12T06:07:25.698Z,97180.94
2023-03-12T06:08:28.364Z,97178.78
2023-03-12T06:09:29.949Z,97173.41
2023-03-12T06:10:32.856Z,97172.09
2023-03-12T06:11:34.543Z,97167.53
2023-03-12T06:12:37.092Z,97167.38
2023-03-12T06:13:38.770Z,97170.63
2023-03-12T06:14:41.310Z,97164.63
2023-03-12T06:15:43.071Z,97174.88
2023-03-12T06:16:45.678Z,97169.81
2023-03-12T06:17:47.289Z,97157.00
2023-03-12T06:18:49.838Z,97151.88
2023-03-12T06:19:52.837Z,97152.31
2023-03-12T06:20:55.443Z,97160.63
2023-03-12T06:21:57.414Z,97149.47
2023-03-12T06:22:59.978Z,97148.97
2023-03-12T06:24:01.681Z,97153.44
2023-03-12T06:25:04.461Z,97147.91
2023-03-12T06:26:06.264Z,97148.00
2023-03-12T06:27:08.857Z,97141.00
2023-03-12T06:28:10.468Z,97143.09
2023-03-12T06:29:13.100Z,97148.44
2023-03-12T06:30:15.517Z,97152.66
2023-03-12T06:31:18.265Z,97159.41
2023-03-12T06:32:20.205Z,97153.44
2023-03-12T06:33:22.835Z,97155.34
2023-03-12T06:34:25.383Z,97151.88
2023-03-12T06:35:28.348Z,97150.50
2023-03-12T06:36:30.933Z,97150.56
2023-03-12T06:37:32.544Z,97144.63
2023-03-12T06:38:35.622Z,97149.63
2023-03-12T06:39:37.501Z,97144.84
2023-03-12T06:40:40.056Z,97146.66
2023-03-12T06:41:41.827Z,97150.44
2023-03-12T06:42:44.411Z,97145.41
2023-03-12T06:43:46.386Z,97138.47
2023-03-12T06:44:48.963Z,97141.66
2023-03-12T06:45:50.558Z,97133.97
2023-03-12T06:46:53.785Z,97139.28
2023-03-12T06:47:55.372Z,97137.09
2023-03-12T06:48:57.950Z,97144.78
2023-03-12T06:49:59.534Z,97141.34
2023-03-12T06:51:03.526Z,97136.13
2023-03-12T06:52:05.445Z,97135.66
2023-03-12T06:53:07.997Z,97136.78
2023-03-12T06:54:09.609Z,97134.41
2023-03-12T06:55:12.190Z,97130.84
2023-03-12T06:56:13.960Z,97129.75
2023-03-12T06:57:17.032Z,97122.31
2023-03-12T06:58:18.657Z,97119.13
2023-03-12T06:59:21.713Z,97112.22
2023-03-12T07:00:23.346Z,97107.94
2023-03-12T07:01:25.917Z,97103.34
2023-03-12T07:02:27.624Z,97118.66
2023-03-12T07:03:30.214Z,97114.31
2023-03-12T07:04:31.806Z,97115.84
2023-03-12T07:05:34.374Z,97121.72
2023-03-12T07:06:37.312Z,97118.47
2023-03-12T07:07:39.990Z,97122.59
2023-03-12T07:08:41.625Z,97124.41
2023-03-12T07:09:44.172Z,97132.44
2023-03-12T07:10:45.926Z,97129.19
2023-03-12T07:11:48.525Z,97131.38
2023-03-12T07:12:50.642Z,97135.72
2023-03-12T07:13:53.182Z,97141.16
2023-03-12T07:14:54.760Z,97136.41
2023-03-12T07:15:57.394Z,97135.88
2023-03-12T07:17:01.740Z,97133.13
2023-03-12T07:18:05.224Z,97126.78
2023-03-12T07:19:07.785Z,97116.88
2023-03-12T07:20:10.919Z,97127.91
2023-03-12T07:21:13.485Z,97127.13
2023-03-12T07:22:17.382Z,97130.03
2023-03-12T07:23:19.125Z,97137.78
2023-03-12T07:24:21.666Z,97139.09
2023-03-12T07:25:24.381Z,97129.50
2023-03-12T07:26:26.937Z,97122.00
2023-03-12T07:27:28.519Z,97131.91
2023-03-12T07:28:31.095Z,97129.75
2023-03-12T07:29:32.710Z,97129.44
2023-03-12T07:30:35.443Z,97140.75
2023-03-12T07:31:37.029Z,97141.53
2023-03-12T07:32:39.676Z,97146.03
2023-03-12T07:33:41.410Z,97147.72
2023-03-12T07:34:44.167Z,97144.34
2023-03-12T07:35:45.876Z,97142.34
2023-03-12T07:36:48.657Z,97140.69
2023-03-12T07:37:51.680Z,97139.59
2023-03-12T07:38:54.638Z,97127.50
2023-03-12T07:39:56.277Z,97136.34
2023-03-12T07:41:00.209Z,97140.25
2023-03-12T07:42:01.892Z,97132.00
2023-03-12T07:43:06.642Z,97135.25
2023-03-12T07:44:09.445Z,97134.13
2023-03-12T07:45:12.461Z,97127.00
2023-03-12T07:46:15.117Z,97128.38
2023-03-12T07:47:24.061Z,97128.53
2023-03-12T07:48:27.277Z,97122.50
2023-03-12T07:49:29.024Z,97129.59
2023-03-12T07:50:31.594Z,97126.69
2023-03-12T07:51:34.158Z,97120.78
2023-03-12T07:52:35.795Z,97114.06
2023-03-12T07:53:39.729Z,97121.38
2023-03-12T07:54:41.488Z,97123.78
2023-03-12T07:55:45.024Z,97121.53
2023-03-12T07:56:46.755Z,97123.97
2023-03-12T07:57:49.450Z,97116.09
2023-03-12T07:58:52.694Z,97121.66
2023-03-12T07:59:54.434Z,97124.13
2023-03-12T08:00:57.250Z,97120.38
2023-03-12T08:01:58.936Z,97119.84
2023-03-12T08:03:01.687Z,97117.47
2023-03-12T08:04:03.678Z,97120.38
2023-03-12T08:05:06.787Z,97117.97
2023-03-12T08:06:08.533Z,97123.63
2023-03-12T08:07:11.169Z,97121.22
2023-03-12T08:08:12.847Z,97120.97
2023-03-12T08:09:16.793Z,97130.16
2023-03-12T08:10:18.599Z,97130.88
2023-03-12T08:11:21.358Z,97127.25
2023-03-12T08:12:23.052Z,97135.59
2023-03-12T08:13:25.847Z,97127.78
2023-03-12T08:14:31.550Z,97129.84
2023-03-12T08:15:34.898Z,97131.81
2023-03-12T08:16:36.540Z,97130.72
2023-03-12T08:17:39.217Z,97130.38
2023-03-12T08:18:42.943Z,97124.88
2023-03-12T08:19:45.515Z,97125.34
2023-03-12T08:20:50.073Z,97126.25
2023-03-12T08:21:53.153Z,97129.84
2023-03-12T08:22:54.773Z,97129.47
2023-03-12T08:23:57.342Z,97125.50
2023-03-12T08:25:00.309Z,97124.34
2023-03-12T08:26:03.086Z,97125.94
2023-03-12T08:27:04.710Z,97127.75
2023-03-12T08:28:07.291Z,97126.84
2023-03-12T08:29:10.261Z,97123.25
2023-03-12T08:30:13.487Z,97118.25
2023-03-12T08:31:15.163Z,97122.03
2023-03-12T08:32:17.856Z,97112.38
2023-03-12T08:33:19.643Z,97112.03
2023-03-12T08:34:22.236Z,97112.16
2023-03-12T08:35:23.854Z,97109.22
2023-03-12T08:36:26.628Z,97110.09
2023-03-12T08:37:28.260Z,97113.25
2023-03-12T08:38:30.863Z,97108.09
2023-03-12T08:39:33.665Z,97106.44
2023-03-12T08:40:38.134Z,97107.25
2023-03-12T08:41:41.022Z,97102.09
2023-03-12T08:42:43.942Z,97105.47
2023-03-12T08:43:46.886Z,97104.09
2023-03-12T08:44:48.534Z,97109.47
2023-03-12T08:45:55.099Z,97101.75
2023-03-12T08:46:56.748Z,97112.56
2023-03-12T08:47:59.310Z,97106.00
2023-03-12T08:49:01.904Z,97105.38
2023-03-12T08:50:03.718Z,97097.94
2023-03-12T08:51:07.570Z,97106.00
2023-03-12T08:52:09.253Z,97112.66
2023-03-12T08:53:11.898Z,97108.81
2023-03-12T08:54:13.503Z,97110.41
2023-03-12T08:55:16.103Z,97105.25
2023-03-12T08:56:19.419Z,97104.34
2023-03-12T08:57:22.042Z,97103.56
2023-03-12T08:58:24.858Z,97103.88
2023-03-12T08:59:27.516Z,97105.91
2023-03-12T09:00:29.285Z,97105.75
2023-03-12T09:01:31.889Z,97097.38
2023-03-12T09:02:33.545Z,97101.66
2023-03-12T09:03:36.103Z,97106.03
2023-03-12T09:04:37.718Z,97093.31
2023-03-12T09:05:40.323Z,97095.84
2023-03-12T09:06:42.295Z,97100.72
2023-03-12T09:07:44.880Z,97097.63
2023-03-12T09:08:46.566Z,97100.81
2023-03-12T09:09:49.138Z,97111.00
2023-03-12T09:10:50.774Z,97107.69
2023-03-12T09:11:55.038Z,97107.38
2023-03-12T09:12:56.675Z,97100.41
2023-03-12T09:14:33.429Z,97097.25
2023-03-12T09:15:21.769Z,97095.34
2023-03-12T09:16:24.375Z,97089.28
2023-03-12T09:17:26.045Z,97093.56
2023-03-12T09:18:28.812Z,97084.13
2023-03-12T09:19:31.378Z,97081.34
2023-03-12T09:20:32.975Z,97081.66
2023-03-12T09:21:35.674Z,97076.06
2023-03-12T09:22:37.515Z,97075.09
2023-03-12T09:23:40.736Z,97071.91
2023-03-12T09:24:42.376Z,97074.72
2023-03-12T09:25:46.274Z,97078.69
2023-03-12T09:26:48.896Z,97074.44
2023-03-12T09:27:51.981Z,97074.53
2023-03-12T09:28:54.663Z,97070.94
2023-03-12T09:30:00.529Z,97077.69
2023-03-12T09:31:03.874Z,97070.25
2023-03-12T09:32:06.357Z,97075.00
2023-03-12T09:33:09.045Z,97071.25
2023-03-12T09:34:11.606Z,97082.66
2023-03-12T09:35:13.961Z,97085.06
2023-03-12T09:36:16.523Z,97082.38
2023-03-12T09:37:18.525Z,97079.31
2023-03-12T09:38:21.331Z,97084.47
2023-03-12T09:39:23.498Z,97075.22
2023-03-12T09:40:29.053Z,97079.22
2023-03-12T09:41:32.475Z,97076.31
2023-03-12T09:42:37.990Z,97078.09
2023-03-12T09:43:43.285Z,97076.81
2023-03-12T09:44:45.848Z,97074.91
2023-03-12T09:45:47.618Z,97070.84
2023-03-12T09:46:52.130Z,97074.94
2023-03-12T09:47:54.980Z,97066.09
2023-03-12T09:48:58.452Z,97059.78
2023-03-12T09:50:02.863Z,97069.56
2023-03-12T09:51:07.303Z,97072.34
2023-03-12T09:52:16.274Z,97063.88
2023-03-12T09:53:23.893Z,97057.94
2023-03-12T09:54:29.314Z,97057.81
2023-03-12T09:55:33.156Z,97049.25
2023-03-12T09:56:35.721Z,97054.72
2023-03-12T09:57:37.324Z,97058.03
2023-03-12T09:58:40.087Z,97061.69
2023-03-12T09:59:44.034Z,97053.22
2023-03-12T10:00:47.697Z,97060.09
2023-03-12T10:01:50.730Z,97060.81
2023-03-12T10:03:09.404Z,97053.63
2023-03-12T10:04:25.630Z,97063.88
2023-03-12T10:05:33.022Z,97050.66
2023-03-12T10:06:37.513Z,97058.34
2023-03-12T10:07:41.735Z,97055.91
2023-03-12T10:08:51.757Z,97056.72
2023-03-12T10:10:15.675Z,97054.63
2023-03-12T10:11:20.797Z,97048.16
2023-03-12T10:12:25.882Z,97048.16
2023-03-12T10:13:38.302Z,97059.41
2023-03-12T10:14:50.699Z,97058.22
2023-03-12T10:16:00.676Z,97058.69
2023-03-12T10:17:17.958Z,97051.34
2023-03-12T10:18:25.481Z,97048.84
2023-03-12T10:19:57.612Z,97055.88
2023-03-12T10:21:05.092Z,97058.78
2023-03-12T10:22:09.023Z,97055.50
2023-03-12T10:23:13.041Z,97050.47
2023-03-12T10:24:25.394Z,97052.88
2023-03-12T10:25:28.643Z,97056.38
2023-03-12T10:26:33.017Z,97054.28
2023-03-12T10:27:35.702Z,97054.34
2023-03-12T10:28:40.592Z,97044.59
2023-03-12T10:29:44.958Z,97058.25
2023-03-12T10:30:50.055Z,97056.47
2023-03-12T10:31:53.534Z,97047.00
2023-03-12T10:32:57.528Z,97055.94
2023-03-12T10:33:59.880Z,97057.41
2023-03-12T10:35:04.514Z,97053.31
2023-03-12T10:36:12.254Z,97060.34
2023-03-12T10:37:17.669Z,97061.13
2023-03-12T10:38:23.221Z,97062.63
2023-03-12T10:39:24.812Z,97056.88
2023-03-12T10:40:28.638Z,97050.59
2023-03-12T10:41:33.472Z,97050.38
2023-03-12T10:42:37.399Z,97057.72
2023-03-12T10:43:39.066Z,97049.66
2023-03-12T10:44:41.645Z,97051.97
2023-03-12T10:45:49.955Z,97059.13
2023-03-12T10:46:57.006Z,97052.94
2023-03-12T10:48:01.410Z,97052.84
2023-03-12T10:49:26.538Z,97053.22
2023-03-12T10:50:29.680Z,97060.88
2023-03-12T10:51:31.346Z,97059.47
2023-03-12T10:52:34.039Z,97059.63
2023-03-12T10:53:35.941Z,97056.75
2023-03-12T10:54:40.487Z,97064.44
2023-03-12T10:55:43.106Z,97058.41
2023-03-12T10:56:49.087Z,97055.50
2023-03-12T10:57:51.799Z,97052.56
2023-03-12T10:58:54.010Z,97056.03
2023-03-12T10:59:57.076Z,97060.03
2023-03-12T11:01:01.137Z,97064.13
2023-03-12T11:02:04.270Z,97057.34
2023-03-12T11:03:06.971Z,97053.84
2023-03-12T11:04:10.532Z,97053.22
2023-03-12T11:05:21.061Z,97049.25
2023-03-12T11:06:24.080Z,97056.31
2023-03-12T11:07:27.742Z,97051.16
2023-03-12T11:08:30.134Z,97060.53
2023-03-12T11:09:32.705Z,97054.53
2023-03-12T11:10:44.080Z,97049.19
2023-03-12T11:11:47.425Z,97057.59
2023-03-12T11:12:55.989Z,97063.47
2023-03-12T11:14:07.387Z,97049.19
2023-03-12T11:15:20.475Z,97062.41
2023-03-12T11:16:31.426Z,97069.19
2023-03-12T11:17:34.586Z,97065.22
2023-03-12T11:18:36.326Z,97073.78
2023-03-12T11:19:40.367Z,97059.47
2023-03-12T11:20:41.983Z,97063.47
2023-03-12T11:21:56.207Z,97070.91
2023-03-12T11:22:57.969Z,97066.81
2023-03-12T11:24:11.399Z,97059.84
2023-03-12T11:25:21.241Z,97066.63
2023-03-12T11:26:24.718Z,97064.13
2023-03-12T11:27:37.325Z,97064.00
2023-03-12T11:28:41.599Z,97065.59
2023-03-12T11:29:44.854Z,97075.09
2023-03-12T11:30:46.567Z,97067.19
2023-03-12T11:31:55.875Z,97070.72
2023-03-12T11:33:02.190Z,97061.38
2023-03-12T11:34:06.271Z,97067.53
2023-03-12T11:35:10.285Z,97061.56
2023-03-12T11:36:23.456Z,97069.19
2023-03-12T11:37:28.748Z,97071.88
2023-03-12T11:38:32.893Z,97056.41
2023-03-12T11:39:40.077Z,97062.72
2023-03-12T11:40:54.022Z,97062.78
2023-03-12T11:42:03.015Z,97062.44
2023-03-12T11:43:13.503Z,97056.03
2023-03-12T11:44:20.566Z,97051.81
2023-03-12T11:45:25.960Z,97055.63
2023-03-12T11:46:33.754Z,97054.03
2023-03-12T11:47:54.491Z,97048.50
2023-03-12T11:49:05.759Z,97044.59
2023-03-12T11:50:23.522Z,97045.25
2023-03-12T11:51:30.820Z,97048.72
2023-03-12T11:52:38.179Z,97043.50
2023-03-12T11:53:52.070Z,97047.16
2023-03-12T11:55:06.806Z,97045.78
2023-03-12T11:56:15.606Z,97051.03
2023-03-12T11:57:21.968Z,97050.69
2023-03-12T11:58:33.240Z,97048.50
2023-03-12T11:59:41.483Z,97058.97
2023-03-12T12:00:48.049Z,97054.53
2023-03-12T12:01:57.626Z,97044.38
2023-03-12T12:03:42.510Z,97046.47
2023-03-12T12:05:13.291Z,97042.31
2023-03-12T12:06:18.933Z,97048.66
2023-03-12T12:07:27.520Z,97037.22
2023-03-12T12:08:42.831Z,97046.59
2023-03-12T12:09:47.270Z,97038.34
2023-03-12T12:10:52.948Z,97042.16
2023-03-12T12:12:05.726Z,97034.56
2023-03-12T12:13:11.497Z,97040.47
2023-03-12T12:14:17.563Z,97031.28
2023-03-12T12:15:24.014Z,97042.09
2023-03-12T12:16:34.374Z,97042.09
2023-03-12T12:17:42.887Z,97038.25
2023-03-12T12:18:53.726Z,97037.97
2023-03-12T12:20:09.116Z,97037.63
2023-03-12T12:21:20.574Z,97044.47
2023-03-12T12:22:31.940Z,97039.56
2023-03-12T12:23:41.817Z,97036.34
2023-03-12T12:24:57.961Z,97056.66
2023-03-12T12:26:07.595Z,97037.94
2023-03-12T12:27:15.069Z,97037.47
2023-03-12T12:28:31.804Z,97034.47